createdAt,value
2023-03-31T00:01:14.593Z,13.50
2023-03-31T00:03:44.853Z,16.00
2023-03-31T00:06:18.910Z,16.50
2023-03-31T00:08:52.590Z,17.50
2023-03-31T00:11:23.867Z,17.00
2023-03-31T00:13:51.924Z,14.40
2023-03-31T00:16:20.032Z,12.40
2023-03-31T00:18:51.281Z,15.70
2023-03-31T00:21:25.819Z,12.70
2023-03-31T00:23:59.128Z,15.00
2023-03-31T00:26:28.183Z,13.20
2023-03-31T00:28:57.215Z,14.60
2023-03-31T00:31:27.368Z,13.60
2023-03-31T00:33:56.660Z,13.40
2023-03-31T00:36:28.743Z,12.50
2023-03-31T00:39:02.817Z,17.10
2023-03-31T00:41:31.196Z,12.40
2023-03-31T00:44:14.826Z,9.70
2023-03-31T00:46:45.855Z,15.00
2023-03-31T00:49:47.641Z,12.80
2023-03-31T00:52:21.795Z,16.40
2023-03-31T00:54:55.830Z,11.60
2023-03-31T00:57:26.332Z,13.40
2023-03-31T01:00:00.210Z,8.50
2023-03-31T01:02:29.143Z,12.60
2023-03-31T01:05:02.333Z,15.10
2023-03-31T01:07:41.487Z,10.90
2023-03-31T01:10:11.114Z,12.40
2023-03-31T01:12:44.389Z,14.20
2023-03-31T01:15:12.799Z,12.50
2023-03-31T01:17:45.185Z,14.80
2023-03-31T01:20:55.843Z,12.50
2023-03-31T01:24:05.367Z,12.30
2023-03-31T01:26:42.409Z,15.10
2023-03-31T01:29:44.352Z,14.30
2023-03-31T01:32:38.451Z,13.10
2023-03-31T01:35:38.517Z,13.20
2023-03-31T01:38:34.806Z,15.50
2023-03-31T01:41:40.591Z,11.70
2023-03-31T01:44:21.211Z,16.50
2023-03-31T01:47:22.984Z,17.70
2023-03-31T01:50:06.005Z,15.00
2023-03-31T01:52:56.275Z,16.30
2023-03-31T01:55:41.714Z,12.90
2023-03-31T01:58:16.199Z,17.80
2023-03-31T02:00:57.191Z,13.50
2023-03-31T02:03:33.251Z,17.00
2023-03-31T02:06:10.563Z,15.30
2023-03-31T02:08:48.465Z,14.00
2023-03-31T02:11:17.116Z,14.40
2023-03-31T02:13:47.542Z,15.60
2023-03-31T02:16:24.646Z,19.20
2023-03-31T02:19:02.624Z,14.20
2023-03-31T02:21:34.447Z,13.80
2023-03-31T02:24:11.256Z,15.20
2023-03-31T02:26:52.377Z,12.60
2023-03-31T02:29:21.416Z,14.50
2023-03-31T02:32:12.820Z,14.80
2023-03-31T02:34:40.929Z,17.70
2023-03-31T02:37:08.940Z,14.20
2023-03-31T02:39:41.339Z,18.60
2023-03-31T02:42:09.741Z,16.40
2023-03-31T02:44:40.106Z,14.30
2023-03-31T02:47:12.158Z,13.20
2023-03-31T02:49:48.765Z,14.10
2023-03-31T02:52:23.902Z,15.90
2023-03-31T02:57:58.430Z,15.10
2023-03-31T03:00:49.805Z,13.70
2023-03-31T03:03:52.262Z,12.40
2023-03-31T03:06:44.339Z,14.00
2023-03-31T03:09:30.625Z,13.70
2023-03-31T03:12:04.778Z,17.40
2023-03-31T03:14:49.507Z,13.10
2023-03-31T03:17:26.061Z,14.20
2023-03-31T03:19:57.130Z,14.00
2023-03-31T03:22:25.409Z,14.80
2023-03-31T03:24:53.704Z,16.30
2023-03-31T03:27:24.582Z,12.80
2023-03-31T03:29:52.567Z,16.30
2023-03-31T03:32:20.542Z,15.20
2023-03-31T03:34:48.745Z,19.20
2023-03-31T03:37:16.714Z,19.60
2023-03-31T03:39:44.722Z,16.80
2023-03-31T03:42:12.953Z,19.00
2023-03-31T03:44:40.821Z,17.60
2023-03-31T03:47:08.824Z,17.60
2023-03-31T03:49:36.794Z,18.60
2023-03-31T03:52:04.939Z,15.30
2023-03-31T03:54:33.010Z,15.90
2023-03-31T03:57:01.178Z,14.30
2023-03-31T03:59:29.152Z,18.90
2023-03-31T04:01:57.202Z,24.90
2023-03-31T04:04:25.182Z,20.40
2023-03-31T04:06:53.129Z,20.60
2023-03-31T04:09:21.079Z,19.30
2023-03-31T04:11:49.069Z,21.10
2023-03-31T04:14:17.153Z,20.00
2023-03-31T04:16:47.071Z,17.10
2023-03-31T04:19:17.868Z,20.10
2023-03-31T04:21:46.019Z,21.10
2023-03-31T04:24:21.840Z,17.70
2023-03-31T04:26:59.910Z,17.50
2023-03-31T04:29:28.115Z,19.00
2023-03-31T04:31:59.680Z,18.60
2023-03-31T04:34:35.439Z,17.80
2023-03-31T04:37:04.814Z,20.00
2023-03-31T04:39:32.959Z,16.70
2023-03-31T04:42:01.544Z,17.40
2023-03-31T04:44:29.904Z,14.10
2023-03-31T04:46:59.120Z,16.00
2023-03-31T04:49:27.116Z,15.10
2023-03-31T04:51:55.421Z,19.20
2023-03-31T04:54:23.502Z,15.20
2023-03-31T04:56:51.694Z,14.90
2023-03-31T04:59:19.792Z,16.20
2023-03-31T05:01:48.268Z,16.10
2023-03-31T05:04:16.296Z,19.40
2023-03-31T05:06:44.440Z,15.80
2023-03-31T05:09:12.560Z,15.90
2023-03-31T05:11:40.700Z,21.80
2023-03-31T05:14:08.655Z,14.40
2023-03-31T05:16:37.201Z,17.40
2023-03-31T05:19:05.857Z,21.20
2023-03-31T05:21:34.165Z,21.10
2023-03-31T05:24:02.163Z,21.10
2023-03-31T05:26:31.118Z,17.50
2023-03-31T05:28:59.158Z,20.30
2023-03-31T05:31:27.554Z,21.50
2023-03-31T05:33:55.712Z,21.80
2023-03-31T05:36:23.965Z,21.70
2023-03-31T05:38:52.659Z,19.90
2023-03-31T05:41:21.091Z,20.70
2023-03-31T05:43:49.695Z,15.30
2023-03-31T05:46:18.691Z,14.20
2023-03-31T05:48:47.314Z,18.50
2023-03-31T05:51:15.468Z,16.70
2023-03-31T05:53:44.614Z,15.50
2023-03-31T05:56:13.844Z,19.60
2023-03-31T05:58:42.121Z,16.50
2023-03-31T06:01:13.873Z,18.70
2023-03-31T06:03:50.093Z,18.80
2023-03-31T06:06:18.498Z,23.80
2023-03-31T06:08:47.531Z,18.50
2023-03-31T06:11:19.513Z,24.10
2023-03-31T06:13:48.865Z,28.10
2023-03-31T06:16:17.956Z,19.70
2023-03-31T06:18:46.478Z,19.00
2023-03-31T06:21:17.541Z,20.80
2023-03-31T06:23:46.388Z,17.80
2023-03-31T06:26:17.885Z,20.40
2023-03-31T06:28:47.195Z,16.90
2023-03-31T06:31:18.680Z,21.20
2023-03-31T06:33:48.109Z,17.50
2023-03-31T06:36:19.015Z,19.20
2023-03-31T06:38:48.329Z,21.20
2023-03-31T06:41:21.038Z,21.20
2023-03-31T06:43:50.115Z,23.10
2023-03-31T06:46:18.993Z,21.30
2023-03-31T06:48:47.834Z,23.60
2023-03-31T06:51:16.724Z,21.60
2023-03-31T06:53:45.100Z,21.90
2023-03-31T06:56:13.736Z,20.80
2023-03-31T06:58:42.361Z,20.80
2023-03-31T07:01:12.090Z,18.90
2023-03-31T07:03:40.787Z,17.30
2023-03-31T07:06:09.565Z,20.30
2023-03-31T07:08:37.953Z,22.40
2023-03-31T07:11:06.478Z,17.00
2023-03-31T07:13:35.260Z,17.00
2023-03-31T07:16:05.620Z,16.80
2023-03-31T07:18:35.596Z,24.00
2023-03-31T07:21:08.176Z,25.80
2023-03-31T07:23:38.528Z,19.60
2023-03-31T07:26:07.332Z,16.10
2023-03-31T07:28:36.039Z,21.10
2023-03-31T07:31:12.070Z,21.80
2023-03-31T07:33:41.692Z,22.00
2023-03-31T07:36:13.368Z,20.70
2023-03-31T07:38:47.210Z,23.90
2023-03-31T07:41:19.082Z,21.10
2023-03-31T07:43:49.026Z,28.10
2023-03-31T07:46:26.519Z,28.40
2023-03-31T07:48:59.108Z,22.80
2023-03-31T07:51:28.393Z,27.70
2023-03-31T07:53:57.082Z,26.40
2023-03-31T07:56:26.582Z,28.30
2023-03-31T07:58:57.710Z,29.90
2023-03-31T08:01:29.178Z,27.90
2023-03-31T08:03:59.298Z,21.90
2023-03-31T08:06:30.267Z,22.90
2023-03-31T08:08:59.748Z,27.70
2023-03-31T08:11:29.412Z,26.20
2023-03-31T08:13:58.596Z,19.30
2023-03-31T08:16:27.393Z,19.90
2023-03-31T08:18:55.901Z,23.20
2023-03-31T08:21:24.836Z,22.70
2023-03-31T08:23:56.076Z,27.90
2023-03-31T08:26:25.835Z,18.90
2023-03-31T08:28:54.500Z,27.30
2023-03-31T08:31:26.729Z,24.00
2023-03-31T08:33:57.689Z,18.30
2023-03-31T08:36:27.815Z,13.50
2023-03-31T08:38:56.361Z,22.30
2023-03-31T08:41:28.298Z,20.50
2023-03-31T08:43:59.310Z,21.10
2023-03-31T08:46:33.838Z,28.70
2023-03-31T08:49:05.000Z,24.90
2023-03-31T08:51:42.439Z,28.80
2023-03-31T08:54:40.403Z,28.00
2023-03-31T08:57:24.505Z,25.30
2023-03-31T08:59:53.073Z,24.20
2023-03-31T09:02:24.756Z,25.40
2023-03-31T09:05:01.149Z,27.00
2023-03-31T09:08:02.787Z,24.30
2023-03-31T09:10:52.334Z,26.10
2023-03-31T09:13:26.688Z,28.20
2023-03-31T09:16:22.947Z,20.00
2023-03-31T09:18:55.643Z,27.10
2023-03-31T09:21:46.143Z,29.80
2023-03-31T09:24:28.647Z,27.10
2023-03-31T09:27:05.516Z,23.70
2023-03-31T09:29:50.576Z,24.80
2023-03-31T09:32:26.122Z,24.40
2023-03-31T09:35:22.375Z,21.60
2023-03-31T09:37:52.990Z,22.50
2023-03-31T09:40:28.207Z,32.00
2023-03-31T09:43:07.319Z,25.60
2023-03-31T09:45:37.069Z,23.00
2023-03-31T09:48:15.036Z,26.70
2023-03-31T09:51:08.338Z,30.60
2023-03-31T09:53:43.790Z,27.30
2023-03-31T09:56:12.222Z,29.90
2023-03-31T09:58:43.051Z,33.50
2023-03-31T10:01:14.401Z,26.90
2023-03-31T10:03:55.046Z,22.00
2023-03-31T10:06:26.136Z,25.60
2023-03-31T10:09:03.731Z,23.70
2023-03-31T10:11:32.500Z,30.00
2023-03-31T10:14:16.615Z,27.90
2023-03-31T10:16:50.509Z,25.90
2023-03-31T10:19:18.708Z,27.60
2023-03-31T10:21:55.816Z,21.70
2023-03-31T10:24:24.559Z,24.20
2023-03-31T10:26:55.962Z,22.50
2023-03-31T10:29:35.153Z,21.00
2023-03-31T10:32:20.463Z,22.30
2023-03-31T10:34:49.325Z,22.20
2023-03-31T10:37:22.825Z,30.50
2023-03-31T10:40:20.642Z,23.80
2023-03-31T10:43:03.728Z,23.60
2023-03-31T10:45:42.159Z,25.50
2023-03-31T10:48:32.275Z,21.10
2023-03-31T10:51:27.802Z,21.60
2023-03-31T10:54:06.680Z,20.80
2023-03-31T10:56:38.388Z,19.50
2023-03-31T10:59:17.145Z,17.50
2023-03-31T11:02:24.721Z,22.90
2023-03-31T11:05:05.904Z,17.80
2023-03-31T11:08:00.019Z,19.00
2023-03-31T11:10:59.870Z,17.60
2023-03-31T11:13:38.954Z,18.90
2023-03-31T11:16:07.211Z,20.90
2023-03-31T11:18:57.325Z,19.50
2023-03-31T11:21:58.645Z,16.30
2023-03-31T11:24:52.322Z,20.50
2023-03-31T11:27:57.772Z,16.30
2023-03-31T11:30:48.819Z,18.40
2023-03-31T11:33:30.186Z,14.30
2023-03-31T11:36:22.557Z,15.90
2023-03-31T11:39:12.550Z,18.40
2023-03-31T11:41:49.884Z,16.10
2023-03-31T11:44:21.481Z,11.10
2023-03-31T11:46:55.084Z,13.30
2023-03-31T11:49:27.885Z,13.20
2023-03-31T11:52:03.349Z,11.50
2023-03-31T11:54:38.258Z,12.80
2023-03-31T11:57:36.168Z,13.50
2023-03-31T12:00:14.102Z,21.40
2023-03-31T12:02:53.838Z,13.80
2023-03-31T12:05:26.031Z,16.60
2023-03-31T12:08:03.321Z,16.80
2023-03-31T12:10:38.040Z,14.50
2023-03-31T12:13:36.600Z,13.50
2023-03-31T12:16:46.450Z,17.10
2023-03-31T12:19:22.922Z,15.70
2023-03-31T12:21:56.933Z,17.30
2023-03-31T12:24:27.537Z,17.70
2023-03-31T12:27:14.559Z,14.80
2023-03-31T12:29:49.047Z,15.10
2023-03-31T12:32:25.323Z,13.90
2023-03-31T12:35:26.031Z,15.10
2023-03-31T12:38:17.405Z,18.80
2023-03-31T12:41:05.517Z,15.40
2023-03-31T12:43:50.216Z,18.90
2023-03-31T12:46:52.608Z,14.30
2023-03-31T12:49:50.755Z,15.30
2023-03-31T12:52:32.915Z,16.20
2023-03-31T12:55:09.839Z,17.00
2023-03-31T12:57:38.360Z,22.40
2023-03-31T13:00:12.717Z,20.50
2023-03-31T13:02:41.634Z,15.70
2023-03-31T13:05:38.458Z,19.20
2023-03-31T13:08:11.794Z,14.20
2023-03-31T13:11:00.947Z,17.80
2023-03-31T13:13:30.104Z,20.20
2023-03-31T13:16:02.849Z,13.70
2023-03-31T13:18:34.994Z,15.60
2023-03-31T13:21:08.791Z,14.50
2023-03-31T13:23:45.962Z,19.60
2023-03-31T13:26:33.963Z,16.70
2023-03-31T13:29:14.917Z,17.30
2023-03-31T13:32:02.989Z,21.70
2023-03-31T13:34:32.804Z,17.10
2023-03-31T13:37:17.267Z,16.80
2023-03-31T13:40:17.406Z,33.90
2023-03-31T13:43:09.419Z,20.50
2023-03-31T13:45:44.061Z,19.40
2023-03-31T13:48:39.528Z,19.90
2023-03-31T13:51:32.658Z,23.90
2023-03-31T13:54:07.459Z,17.90
2023-03-31T13:56:39.442Z,20.30
2023-03-31T13:59:13.812Z,16.60
2023-03-31T14:01:55.410Z,19.10
2023-03-31T14:04:43.869Z,19.40
2023-03-31T14:07:23.644Z,14.90
2023-03-31T14:09:54.332Z,21.60
2023-03-31T14:12:35.282Z,18.30
2023-03-31T14:15:06.567Z,21.70
2023-03-31T14:17:41.375Z,19.80
2023-03-31T14:20:13.058Z,19.70
2023-03-31T14:23:23.818Z,16.50
2023-03-31T14:26:12.722Z,30.20
2023-03-31T14:28:41.914Z,20.60
2023-03-31T14:31:20.916Z,19.10
2023-03-31T14:34:37.239Z,23.60
2023-03-31T14:37:23.246Z,17.60
2023-03-31T14:39:56.866Z,19.80
2023-03-31T14:42:30.796Z,18.80
2023-03-31T14:45:04.897Z,19.40
2023-03-31T14:47:33.851Z,19.20
2023-03-31T14:50:15.787Z,19.70
2023-03-31T14:52:50.618Z,24.00
2023-03-31T14:55:28.475Z,18.60
2023-03-31T14:58:02.714Z,23.00
2023-03-31T15:00:34.592Z,18.60
2023-03-31T15:03:08.889Z,19.60
2023-03-31T15:05:38.957Z,18.60
2023-03-31T15:08:20.020Z,18.00
2023-03-31T15:11:09.623Z,22.60
2023-03-31T15:14:01.168Z,21.70
2023-03-31T15:16:43.351Z,20.40
2023-03-31T15:19:16.612Z,16.60
2023-03-31T15:21:47.089Z,23.40
2023-03-31T15:24:16.658Z,23.70
2023-03-31T15:26:53.439Z,22.20
2023-03-31T15:29:31.330Z,19.30
2023-03-31T15:32:00.986Z,23.20
2023-03-31T15:34:36.266Z,23.80
2023-03-31T15:39:38.986Z,19.90
2023-03-31T15:42:08.822Z,30.60
2023-03-31T15:44:43.314Z,24.20
2023-03-31T15:47:29.706Z,22.20
2023-03-31T15:50:08.551Z,29.00
2023-03-31T15:52:41.280Z,23.10
2023-03-31T15:55:32.293Z,28.30
2023-03-31T15:58:02.829Z,22.90
2023-03-31T16:00:39.157Z,25.00
2023-03-31T16:03:22.179Z,22.60
2023-03-31T16:06:10.109Z,21.30
2023-03-31T16:08:48.110Z,21.90
2023-03-31T16:11:23.943Z,21.60
2023-03-31T16:13:57.131Z,24.80
2023-03-31T16:16:29.266Z,35.00
2023-03-31T16:19:10.445Z,28.00
2023-03-31T16:21:45.951Z,24.30
2023-03-31T16:24:16.373Z,29.30
2023-03-31T16:26:46.002Z,29.40
2023-03-31T16:29:23.990Z,26.60
2023-03-31T16:32:11.816Z,23.40
2023-03-31T16:35:02.722Z,25.30
2023-03-31T16:37:31.451Z,28.40
2023-03-31T16:40:00.969Z,29.00
2023-03-31T16:42:31.777Z,27.10
2023-03-31T16:45:13.749Z,25.60
2023-03-31T16:47:45.465Z,25.30
2023-03-31T16:50:16.062Z,30.40
2023-03-31T16:52:45.959Z,31.80
2023-03-31T16:55:16.962Z,30.80
2023-03-31T16:57:46.474Z,25.10
2023-03-31T17:00:15.137Z,29.00
2023-03-31T17:02:43.926Z,24.40
2023-03-31T17:05:13.834Z,29.20
2023-03-31T17:07:42.995Z,25.70
2023-03-31T17:10:13.044Z,26.30
2023-03-31T17:12:41.726Z,22.40
2023-03-31T17:15:10.937Z,29.10
2023-03-31T17:17:39.394Z,21.80
2023-03-31T17:20:09.504Z,28.60
2023-03-31T17:22:38.705Z,28.80
2023-03-31T17:25:08.516Z,24.40
2023-03-31T17:27:36.666Z,30.70
2023-03-31T17:30:06.373Z,33.10
2023-03-31T17:32:34.932Z,36.90
2023-03-31T17:35:04.015Z,33.40
2023-03-31T17:37:33.689Z,34.00
2023-03-31T17:40:02.109Z,28.90
2023-03-31T17:42:31.619Z,35.00
2023-03-31T17:44:59.912Z,31.10
2023-03-31T17:47:30.726Z,25.80
2023-03-31T17:49:59.154Z,31.30
2023-03-31T17:52:28.068Z,36.90
2023-03-31T17:54:58.235Z,32.80
2023-03-31T17:57:26.760Z,33.20
2023-03-31T17:59:54.981Z,34.30
2023-03-31T18:02:25.142Z,30.40
2023-03-31T18:04:54.866Z,31.30
2023-03-31T18:07:25.856Z,40.00
2023-03-31T18:09:53.926Z,31.20
2023-03-31T18:12:23.332Z,32.20
2023-03-31T18:14:52.211Z,36.70
2023-03-31T18:17:20.490Z,30.60
2023-03-31T18:19:48.743Z,34.10
2023-03-31T18:22:16.976Z,31.90
2023-03-31T18:24:45.841Z,30.80
2023-03-31T18:27:14.011Z,30.80
2023-03-31T18:29:42.251Z,28.90
2023-03-31T18:32:10.453Z,28.70
2023-03-31T18:34:38.756Z,36.60
2023-03-31T18:37:07.184Z,37.60
2023-03-31T18:39:35.768Z,33.80
2023-03-31T18:42:04.324Z,37.60
2023-03-31T18:44:32.863Z,36.00
2023-03-31T18:47:02.351Z,29.80
2023-03-31T18:49:32.227Z,30.90
2023-03-31T18:52:02.636Z,30.50
2023-03-31T18:54:31.413Z,30.20
2023-03-31T18:57:01.797Z,31.80
2023-03-31T18:59:30.302Z,32.70
2023-03-31T19:01:58.590Z,32.40
2023-03-31T19:04:27.685Z,29.70
2023-03-31T19:06:57.337Z,24.60
2023-03-31T19:09:28.157Z,28.80
2023-03-31T19:11:57.771Z,27.10
2023-03-31T19:14:27.386Z,26.50
2023-03-31T19:16:55.678Z,28.50
2023-03-31T19:19:25.835Z,25.90
2023-03-31T19:21:54.585Z,26.00
2023-03-31T19:24:24.416Z,19.10
2023-03-31T19:26:53.232Z,23.70
2023-03-31T19:29:21.493Z,25.80
2023-03-31T19:31:49.822Z,27.30
2023-03-31T19:34:18.181Z,29.00
2023-03-31T19:36:46.539Z,29.80
2023-03-31T19:39:14.808Z,32.70
2023-03-31T19:41:43.329Z,25.10
2023-03-31T19:44:11.733Z,26.40
2023-03-31T19:46:40.097Z,25.00
2023-03-31T19:49:08.208Z,22.50
2023-03-31T19:51:36.676Z,29.40
2023-03-31T19:54:04.849Z,28.00
2023-03-31T19:56:33.733Z,20.50
2023-03-31T19:59:02.945Z,27.10
2023-03-31T20:01:32.832Z,28.30
2023-03-31T20:04:01.588Z,24.30
2023-03-31T20:06:32.003Z,36.60
2023-03-31T20:09:01.868Z,27.70
2023-03-31T20:11:31.145Z,31.60
2023-03-31T20:13:59.737Z,25.70
2023-03-31T20:16:29.923Z,27.80
2023-03-31T20:19:01.600Z,25.60
2023-03-31T20:21:32.174Z,32.50
2023-03-31T20:24:00.442Z,30.20
2023-03-31T20:26:30.926Z,29.70
2023-03-31T20:29:02.755Z,25.40
2023-03-31T20:31:34.266Z,27.80
2023-03-31T20:34:02.587Z,32.10
2023-03-31T20:36:32.107Z,23.10
2023-03-31T20:39:04.312Z,24.10
2023-03-31T20:41:34.914Z,26.40
2023-03-31T20:44:05.063Z,23.00
2023-03-31T20:46:34.827Z,20.80
2023-03-31T20:49:03.285Z,24.70
2023-03-31T20:51:33.801Z,27.20
2023-03-31T20:54:02.059Z,30.90
2023-03-31T20:56:33.678Z,23.80
2023-03-31T20:59:02.168Z,27.60
2023-03-31T21:01:33.470Z,23.90
2023-03-31T21:04:03.227Z,21.80
2023-03-31T21:06:46.206Z,24.60
2023-03-31T21:09:15.655Z,25.60
2023-03-31T21:11:44.352Z,25.60
2023-03-31T21:14:16.992Z,25.60
2023-03-31T21:16:45.401Z,25.10
2023-03-31T21:19:13.840Z,26.80
2023-03-31T21:21:43.349Z,26.00
2023-03-31T21:24:13.475Z,24.40
2023-03-31T21:26:42.281Z,28.60
2023-03-31T21:29:10.421Z,29.90
2023-03-31T21:31:39.054Z,22.30
2023-03-31T21:34:07.388Z,23.50
2023-03-31T21:36:35.703Z,26.50
2023-03-31T21:39:05.258Z,23.80
2023-03-31T21:41:33.435Z,25.70
2023-03-31T21:44:02.806Z,23.40
2023-03-31T21:46:33.540Z,24.20
2023-03-31T21:49:02.941Z,21.10
2023-03-31T21:51:31.756Z,22.10
2023-03-31T21:53:59.815Z,22.40
2023-03-31T21:56:28.535Z,24.00
2023-03-31T21:59:01.584Z,21.70
2023-03-31T22:01:31.557Z,26.00
2023-03-31T22:04:00.570Z,27.70
2023-03-31T22:06:29.108Z,25.30
2023-03-31T22:08:57.162Z,24.40
2023-03-31T22:11:25.260Z,21.40
2023-03-31T22:13:53.510Z,22.90
2023-03-31T22:16:23.644Z,22.60
2023-03-31T22:18:53.009Z,24.20
2023-03-31T22:21:24.876Z,23.20
2023-03-31T22:23:56.077Z,24.30
2023-03-31T22:26:26.236Z,21.90
2023-03-31T22:28:55.111Z,20.70
2023-03-31T22:31:23.773Z,22.30
2023-03-31T22:33:53.285Z,23.70
2023-03-31T22:36:21.374Z,19.60
2023-03-31T22:38:49.518Z,22.50
2023-03-31T22:41:17.747Z,23.20
2023-03-31T22:43:46.406Z,25.10
2023-03-31T22:46:16.035Z,22.10
2023-03-31T22:48:48.878Z,23.90
2023-03-31T22:51:17.585Z,20.80
2023-03-31T22:53:53.008Z,20.40
2023-03-31T22:58:52.553Z,23.00
2023-03-31T23:01:21.779Z,22.30
2023-03-31T23:03:50.534Z,27.40
2023-03-31T23:06:18.704Z,22.50
2023-03-31T23:08:49.155Z,25.00
2023-03-31T23:11:18.968Z,23.40
2023-03-31T23:13:47.638Z,25.90
2023-03-31T23:16:27.426Z,22.90
2023-03-31T23:18:56.115Z,22.60
2023-03-31T23:21:27.415Z,24.80
2023-03-31T23:23:58.799Z,24.20
2023-03-31T23:26:28.184Z,22.00
2023-03-31T23:28:57.905Z,23.90
2023-03-31T23:31:29.220Z,28.70
2023-03-31T23:33:59.323Z,28.80
2023-03-31T23:36:27.576Z,32.10
2023-03-31T23:38:56.776Z,25.80
2023-03-31T23:41:26.559Z,22.90
2023-03-31T23:43:58.205Z,27.10
2023-03-31T23:46:27.385Z,25.60
2023-03-31T23:48:55.922Z,26.80
2023-03-31T23:51:24.515Z,29.50
2023-03-31T23:53:53.150Z,23.70
2023-03-31T23:56:21.893Z,20.80
2023-03-31T23:58:50.121Z,21.80
